Avon, CO

03:38 PM MST em 27 de Fevereiro de 2015 (GMT -0700)
Kremmling | Change Station
CLOSE
Current Station
Aeroporto
Location: Kremmling,
Altitude: 7411 ft
Estações Meteorológicas Próximas

Elev 7411 ft 40.05 °N, 106.37 °W | Updated 3 minutes ago

Céu Encoberto
Céu Encoberto
30 °F
Aparente 30 °F
N
0
Vento Variável Vento de Norte

Hoje
Máxima -- | Mínima -- °F
--% Possibilidade de Precip.
Ontem
Máxima -- | Mínima -- °F
Precip. -- pol
6:42 AM 5:55 PM
Lua crescente, 72% visible
Pressão 29.72 pol
Visibilidade 10.0 milhas
Nuvens Muito Nublado 5500 ft
Ponto de Orvalho 14 °F
Humidade 51%
Chuva 0.00 pol
Altura de Neve Não disponível
UV 1 em vez de 12
Pólen .60 em vez de 12
Qualidade do Ar Não disponível
Flu Activity Não disponível
METAR K20V 272235Z AUTO 00000KT 10SM BKN055 M01/M10 A2972 RMK AO2

More Conditions Fewer Conditions

Pressão 29.72 pol
Visibilidade 10.0 milhas
Nuvens Muito Nublado 5500 ft
Ponto de Orvalho 14 °F
Humidade 51%
Chuva 0.00 pol
Altura de Neve Não disponível
UV 1 em vez de 12
Pólen .60 em vez de 12
Qualidade do Ar Não disponível
Flu Activity Não disponível
METAR K20V 272235Z AUTO 00000KT 10SM BKN055 M01/M10 A2972 RMK AO2

More Conditions Fewer Conditions

10-Day Weather Forecast

Almanac

Astronomia

Feb. 27, 2015 Nascer Pôr
Hora atual
Crepúsculo civil
Crepúsculo náutico
Crepúsculo astronómico
Lua
Comprimento da luz visível
Duração do Dia
Tomorrow will be .
, % of the Moon is Illuminated

Extremos de Hoje

situação na parte mais alta situação na parte mais baixa

Community

WunderPhotos

Upload Photos

1,800,852 fotografias inseridas!

WunderBlogs® & News

Nearby

Qualidade do Ar

  Qualidade do Ar Índice da Q.A. Poluente
Not available.

Altura da Neve

Estação altura Altitude

Actividade Sísmisca

Cidade Distância Mag. Hora & Data
Mínima magnitude apresentada é 2.5.

Temperaturas das Águas Costeiras

Local Temperatura

Estações Meteorológicas Próximas